Time;durP1;ratioP1;P1;durP2;ratioP2;P2;SDS_P1;SDS_P2;PMS_P1;PMS_P2;Temp;Humidity;BMP_temperature;BMP_pressure;BME280_temperature;BME280_humidity;BME280_pressure;Samples;Min_cycle;Max_cycle;Signal;HPM_P1;HPM_P2
2021/12/01 00:00:28;;;;;;;5.03;2.08;;;20.70;57.50;;;;;;5034355;28;20041;-59
2021/12/01 00:02:54;;;;;;;4.60;1.70;;;20.70;57.40;;;;;;5032798;28;20401;-59
2021/12/01 00:05:20;;;;;;;4.18;1.83;;;20.70;57.40;;;;;;5033667;28;20394;-59
2021/12/01 00:07:46;;;;;;;6.25;2.10;;;20.70;57.40;;;;;;5033813;28;20086;-60
2021/12/01 00:10:12;;;;;;;3.42;2.00;;;20.60;57.30;;;;;;5033978;28;20448;-58
2021/12/01 00:12:37;;;;;;;4.07;2.05;;;20.60;57.40;;;;;;5032376;28;20052;-59
2021/12/01 00:15:04;;;;;;;4.20;1.90;;;20.60;57.30;;;;;;5032540;28;20045;-59
2021/12/01 00:17:30;;;;;;;4.70;1.77;;;20.60;57.30;;;;;;5031564;28;20045;-59
2021/12/01 00:19:55;;;;;;;3.30;2.00;;;20.60;57.40;;;;;;5032089;28;20037;-60
2021/12/01 00:22:21;;;;;;;4.20;2.08;;;20.60;57.30;;;;;;5033912;28;20046;-60
2021/12/01 00:24:46;;;;;;;4.00;1.98;;;20.60;57.30;;;;;;5031559;28;20496;-61
2021/12/01 00:27:12;;;;;;;3.92;2.03;;;20.60;57.40;;;;;;5032517;28;20052;-59
2021/12/01 00:29:37;;;;;;;3.28;1.90;;;20.60;57.40;;;;;;5032651;28;20049;-60
2021/12/01 00:32:03;;;;;;;4.20;1.92;;;20.60;57.40;;;;;;5032685;28;20042;-59
2021/12/01 00:34:29;;;;;;;4.97;2.05;;;20.50;57.30;;;;;;5032424;28;20080;-60
2021/12/01 00:36:54;;;;;;;3.53;1.80;;;20.50;57.30;;;;;;5033530;28;20084;-60
2021/12/01 00:39:20;;;;;;;3.55;2.20;;;20.50;57.30;;;;;;5032340;28;20041;-59
2021/12/01 00:41:48;;;;;;;4.28;2.30;;;20.50;57.30;;;;;;5031912;28;20072;-59
2021/12/01 00:44:13;;;;;;;4.72;2.42;;;20.50;57.30;;;;;;5016433;28;20070;-60
2021/12/01 00:46:52;;;;;;;4.45;2.33;;;20.50;57.30;;;;;;5012072;28;20525;-60
2021/12/01 00:49:18;;;;;;;4.60;2.00;;;20.50;57.30;;;;;;5013473;28;20089;-60
2021/12/01 00:51:43;;;;;;;3.40;1.85;;;20.50;57.30;;;;;;5012218;28;20073;-60
2021/12/01 00:54:09;;;;;;;5.07;1.98;;;20.40;57.30;;;;;;5019153;28;20122;-59
2021/12/01 00:56:34;;;;;;;4.07;1.95;;;20.50;57.30;;;;;;5033439;28;20045;-59
2021/12/01 00:59:01;;;;;;;3.95;2.10;;;20.50;57.30;;;;;;5024488;28;20046;-59
2021/12/01 01:01:26;;;;;;;5.35;2.08;;;20.40;57.20;;;;;;5012619;28;20534;-59
2021/12/01 01:03:52;;;;;;;4.85;2.10;;;20.40;57.20;;;;;;5012935;28;20523;-59
2021/12/01 01:06:17;;;;;;;4.47;1.88;;;20.40;57.20;;;;;;5020185;28;20060;-59
2021/12/01 01:08:45;;;;;;;4.63;2.00;;;20.40;57.30;;;;;;5031579;28;20401;-59
2021/12/01 01:16:22;;;;;;;3.75;1.98;;;20.40;57.20;;;;;;5032177;28;20052;-59
2021/12/01 01:16:43;;;;;;;3.85;1.88;;;20.40;57.20;;;;;;5032429;28;20050;-59
2021/12/01 01:19:09;;;;;;;3.53;2.08;;;20.40;57.20;;;;;;5033052;28;20045;-59
2021/12/01 01:21:36;;;;;;;4.95;1.90;;;20.40;57.20;;;;;;5030926;28;20123;-60
2021/12/01 01:24:03;;;;;;;3.67;1.90;;;20.40;57.20;;;;;;5032816;28;20041;-59
2021/12/01 01:26:29;;;;;;;4.03;1.77;;;20.40;57.10;;;;;;5032876;28;20092;-59
2021/12/01 01:28:54;;;;;;;5.32;2.25;;;20.30;57.10;;;;;;5031949;28;20385;-59
2021/12/01 01:31:20;;;;;;;4.35;1.95;;;20.30;57.10;;;;;;5032788;28;20504;-59
2021/12/01 01:33:46;;;;;;;3.38;2.08;;;20.30;57.10;;;;;;5032644;28;20046;-59
2021/12/01 01:36:12;;;;;;;4.95;2.00;;;20.30;57.10;;;;;;5031141;28;20397;-59
2021/12/01 01:38:38;;;;;;;3.42;1.70;;;20.30;57.10;;;;;;5032860;28;20150;-59
2021/12/01 01:41:04;;;;;;;4.75;2.00;;;20.30;57.10;;;;;;5032175;28;20402;-59
2021/12/01 01:43:30;;;;;;;4.40;1.80;;;20.30;57.10;;;;;;5030465;28;20045;-59
2021/12/01 01:45:55;;;;;;;2.78;1.63;;;20.30;57.10;;;;;;5031103;28;20048;-59
2021/12/01 01:48:31;;;;;;;3.22;1.90;;;20.30;57.10;;;;;;5031079;28;20038;-59
2021/12/01 01:51:01;;;;;;;3.65;1.88;;;20.30;57.10;;;;;;5032266;28;20406;-59
2021/12/01 01:53:27;;;;;;;3.28;1.50;;;20.30;57.10;;;;;;5034404;28;20129;-59
2021/12/01 01:55:57;;;;;;;3.00;1.77;;;20.30;57.10;;;;;;5036084;28;20038;-59
2021/12/01 01:58:23;;;;;;;5.18;2.10;;;20.20;57.00;;;;;;5034812;28;20502;-59
2021/12/01 02:00:53;;;;;;;3.53;1.98;;;20.20;57.00;;;;;;5036118;28;20044;-59
2021/12/01 02:03:23;;;;;;;4.80;2.17;;;20.20;57.00;;;;;;5033718;28;20053;-59
2021/12/01 02:05:49;;;;;;;3.72;1.52;;;20.20;57.00;;;;;;5035102;28;20056;-59
2021/12/01 02:08:19;;;;;;;4.57;2.20;;;20.20;57.10;;;;;;5035042;28;20132;-59
2021/12/01 02:10:51;;;;;;;2.78;1.55;;;20.20;57.10;;;;;;5035505;28;20041;-59
2021/12/01 02:13:17;;;;;;;4.15;1.52;;;20.20;57.00;;;;;;5020402;28;20046;-59
2021/12/01 02:15:50;;;;;;;3.97;1.70;;;20.20;57.10;;;;;;5029482;28;20146;-59
2021/12/01 02:18:15;;;;;;;3.05;1.73;;;20.20;57.10;;;;;;5035626;28;20045;-59
2021/12/01 02:20:56;;;;;;;3.65;1.83;;;20.10;57.00;;;;;;5036100;28;20033;-59
2021/12/01 02:23:23;;;;;;;3.95;1.58;;;20.20;57.00;;;;;;5034949;28;20059;-59
2021/12/01 02:25:48;;;;;;;2.20;1.38;;;20.20;57.00;;;;;;5033523;28;20053;-59
2021/12/01 02:28:14;;;;;;;3.40;1.60;;;20.20;57.10;;;;;;5036030;28;20073;-59
2021/12/01 02:30:39;;;;;;;3.38;1.50;;;20.20;57.10;;;;;;5033941;28;20077;-60
2021/12/01 02:33:05;;;;;;;3.08;1.33;;;20.20;57.00;;;;;;5034817;28;20047;-59
2021/12/01 02:35:30;;;;;;;3.03;1.55;;;20.20;57.10;;;;;;5034631;28;20045;-59
2021/12/01 02:37:56;;;;;;;3.55;1.50;;;20.20;57.00;;;;;;5035612;28;20045;-59
2021/12/01 02:40:21;;;;;;;3.22;1.30;;;20.20;57.00;;;;;;5033732;28;20049;-59
2021/12/01 02:42:47;;;;;;;2.75;1.38;;;20.20;57.00;;;;;;5033979;28;20128;-59
2021/12/01 02:45:12;;;;;;;4.32;1.75;;;20.20;57.00;;;;;;5035928;28;20050;-59
2021/12/01 02:47:38;;;;;;;3.17;1.23;;;20.20;57.00;;;;;;5034858;28;20467;-59
2021/12/01 02:50:04;;;;;;;3.28;1.40;;;20.20;57.00;;;;;;5034300;28;20041;-59
2021/12/01 02:52:33;;;;;;;2.70;1.30;;;20.20;57.00;;;;;;5035003;28;20064;-59
2021/12/01 02:54:58;;;;;;;3.15;1.60;;;20.20;56.90;;;;;;5033935;28;20477;-59
2021/12/01 02:57:24;;;;;;;2.78;1.15;;;20.20;56.90;;;;;;5051052;28;20067;-59
2021/12/01 02:59:49;;;;;;;3.72;1.30;;;20.20;57.00;;;;;;5034038;28;20053;-59
2021/12/01 03:02:15;;;;;;;3.03;1.42;;;20.20;56.90;;;;;;5029470;28;20093;-59
2021/12/01 03:04:41;;;;;;;2.25;1.33;;;20.20;56.90;;;;;;5012074;28;20038;-59
2021/12/01 03:07:06;;;;;;;2.85;1.30;;;20.20;56.90;;;;;;5012595;28;20046;-61
2021/12/01 03:09:32;;;;;;;5.45;1.35;;;20.20;56.90;;;;;;5014180;28;20068;-59
2021/12/01 03:11:58;;;;;;;1.88;1.20;;;20.20;56.90;;;;;;5015093;28;20092;-59
2021/12/01 03:14:23;;;;;;;2.08;1.00;;;20.20;56.90;;;;;;5014784;28;20046;-59
2021/12/01 03:16:50;;;;;;;2.88;1.17;;;20.20;56.90;;;;;;5030685;28;20044;-59
2021/12/01 03:19:15;;;;;;;2.97;1.33;;;20.30;56.90;;;;;;5035448;28;20042;-59
2021/12/01 03:21:41;;;;;;;2.85;1.23;;;20.30;56.90;;;;;;5033166;28;20044;-59
2021/12/01 03:24:07;;;;;;;1.90;1.10;;;20.20;56.90;;;;;;5034776;28;20041;-59
2021/12/01 03:26:33;;;;;;;1.85;1.10;;;20.30;57.00;;;;;;5035148;28;20500;-59
2021/12/01 03:29:00;;;;;;;2.05;1.00;;;20.20;56.80;;;;;;5033981;28;20045;-59
2021/12/01 03:31:26;;;;;;;1.88;0.93;;;20.30;56.90;;;;;;5035114;28;20073;-59
2021/12/01 03:33:52;;;;;;;2.60;1.40;;;20.30;56.90;;;;;;5034538;28;20088;-60
2021/12/01 03:36:17;;;;;;;2.08;1.20;;;20.30;56.90;;;;;;5029142;28;20128;-59
2021/12/01 03:38:43;;;;;;;1.48;0.82;;;20.30;56.80;;;;;;5013057;28;20046;-59
2021/12/01 03:41:09;;;;;;;1.45;0.70;;;20.30;56.90;;;;;;5014943;28;20508;-59
2021/12/01 03:43:34;;;;;;;2.33;0.90;;;20.30;56.90;;;;;;5013005;28;20521;-59
2021/12/01 03:46:00;;;;;;;3.28;1.10;;;20.30;56.90;;;;;;5014773;28;20569;-59
2021/12/01 03:48:25;;;;;;;2.88;0.80;;;20.30;56.90;;;;;;5029744;28;20044;-59
2021/12/01 03:50:51;;;;;;;1.83;1.08;;;20.30;56.90;;;;;;5013819;28;20103;-59
2021/12/01 03:53:18;;;;;;;2.85;1.00;;;20.30;56.80;;;;;;5013461;28;20046;-59
2021/12/01 03:55:43;;;;;;;1.73;0.85;;;20.30;56.80;;;;;;5014275;28;20115;-59
2021/12/01 03:58:09;;;;;;;1.42;0.75;;;20.30;56.70;;;;;;5012840;28;20490;-59
2021/12/01 04:00:34;;;;;;;2.05;0.88;;;20.30;56.80;;;;;;5034158;28;20046;-59
2021/12/01 04:03:00;;;;;;;1.25;0.80;;;20.30;56.90;;;;;;5031047;28;20132;-59
2021/12/01 04:05:26;;;;;;;1.77;1.02;;;20.40;56.90;;;;;;5034377;28;20128;-59
2021/12/01 04:07:51;;;;;;;1.40;0.80;;;20.40;56.80;;;;;;5032572;28;20046;-59
2021/12/01 04:10:17;;;;;;;2.80;0.88;;;20.30;56.80;;;;;;5029063;28;20504;-59
2021/12/01 04:12:43;;;;;;;2.60;0.65;;;20.40;56.80;;;;;;5012886;28;20052;-59
2021/12/01 04:15:10;;;;;;;2.80;0.77;;;20.40;56.80;;;;;;5013378;28;20204;-59
2021/12/01 04:17:35;;;;;;;1.67;0.75;;;20.30;56.70;;;;;;5012591;28;20487;-59
2021/12/01 04:20:01;;;;;;;1.63;0.60;;;20.40;56.70;;;;;;5014174;28;20129;-59
2021/12/01 04:22:26;;;;;;;1.38;0.70;;;20.40;56.80;;;;;;5014113;28;20494;-59
2021/12/01 04:24:52;;;;;;;0.95;0.65;;;20.40;56.80;;;;;;5011685;28;20046;-59
2021/12/01 04:27:18;;;;;;;0.95;0.50;;;20.40;56.70;;;;;;5014193;28;20038;-59
2021/12/01 04:29:43;;;;;;;1.98;0.80;;;20.40;56.80;;;;;;5012791;28;20073;-59
2021/12/01 04:32:09;;;;;;;1.75;0.70;;;20.30;56.70;;;;;;5012233;28;20054;-59
2021/12/01 04:34:36;;;;;;;1.80;0.70;;;20.40;56.80;;;;;;5014185;28;20088;-59
2021/12/01 04:37:01;;;;;;;4.20;0.80;;;20.40;56.70;;;;;;5013335;28;20100;-59
2021/12/01 04:39:27;;;;;;;0.82;0.57;;;20.30;56.70;;;;;;5012815;28;20054;-59
2021/12/01 04:41:55;;;;;;;3.15;0.70;;;20.40;56.70;;;;;;5013491;28;20073;-59
2021/12/01 04:44:21;;;;;;;0.90;0.60;;;20.40;56.70;;;;;;5013717;28;20055;-59
2021/12/01 04:46:48;;;;;;;1.30;0.70;;;20.40;56.60;;;;;;5011542;28;20046;-59
2021/12/01 04:49:18;;;;;;;1.85;0.63;;;20.40;56.60;;;;;;5012372;28;20053;-59
2021/12/01 04:51:46;;;;;;;1.30;0.65;;;20.40;56.60;;;;;;5012313;28;20559;-59
2021/12/01 04:54:12;;;;;;;1.40;0.73;;;20.40;56.60;;;;;;5018777;28;20072;-59
2021/12/01 04:56:37;;;;;;;1.33;0.70;;;20.40;56.60;;;;;;5033410;28;20119;-59
2021/12/01 04:59:06;;;;;;;0.75;0.50;;;20.40;56.60;;;;;;5032452;28;20061;-59
2021/12/01 05:01:33;;;;;;;1.45;0.70;;;20.40;56.60;;;;;;5026794;28;20070;-59
2021/12/01 05:03:58;;;;;;;0.95;0.52;;;20.40;56.60;;;;;;5007701;28;20052;-59
2021/12/01 05:06:24;;;;;;;2.10;0.45;;;20.40;56.50;;;;;;5030024;28;20038;-59
2021/12/01 05:08:50;;;;;;;0.73;0.50;;;20.40;56.50;;;;;;5032600;28;20477;-59
2021/12/01 05:11:15;;;;;;;2.10;0.70;;;20.40;56.50;;;;;;5031908;28;20397;-59
2021/12/01 05:13:41;;;;;;;0.90;0.50;;;20.40;56.50;;;;;;5032247;28;20049;-59
2021/12/01 05:16:06;;;;;;;1.25;0.50;;;20.40;56.50;;;;;;5031736;28;20500;-59
2021/12/01 05:18:32;;;;;;;1.30;0.40;;;20.40;57.20;;;;;;5032615;28;20041;-59
2021/12/01 05:20:57;;;;;;;1.52;0.63;;;20.50;56.50;;;;;;5032013;28;20048;-59
2021/12/01 05:23:23;;;;;;;1.33;0.55;;;20.40;56.40;;;;;;5033063;28;20045;-60
2021/12/01 05:25:48;;;;;;;1.10;0.50;;;20.40;56.40;;;;;;5032497;28;20107;-59
2021/12/01 05:28:14;;;;;;;1.70;0.50;;;20.50;56.50;;;;;;5032077;28;20045;-59
2021/12/01 05:30:39;;;;;;;1.45;0.52;;;20.50;56.40;;;;;;5032711;28;20071;-59
2021/12/01 05:33:07;;;;;;;1.75;0.55;;;20.40;56.40;;;;;;5032355;28;20045;-59
2021/12/01 05:35:33;;;;;;;0.60;0.30;;;20.50;56.40;;;;;;5031921;28;20045;-59
2021/12/01 05:37:59;;;;;;;0.90;0.40;;;20.40;56.30;;;;;;5030700;28;20037;-59
2021/12/01 05:40:24;;;;;;;0.40;0.30;;;20.50;56.40;;;;;;5031331;28;20397;-59
2021/12/01 05:42:50;;;;;;;0.50;0.30;;;20.40;56.40;;;;;;5031634;28;20041;-59
2021/12/01 05:45:15;;;;;;;1.02;0.38;;;20.50;57.10;;;;;;5032666;28;20084;-59
2021/12/01 05:47:41;;;;;;;0.60;0.38;;;20.50;56.30;;;;;;5031006;28;20176;-59
2021/12/01 05:50:07;;;;;;;0.85;0.40;;;20.40;56.30;;;;;;5031605;28;20090;-59
2021/12/01 05:52:32;;;;;;;0.77;0.43;;;20.50;56.30;;;;;;5032440;28;20128;-59
2021/12/01 05:54:58;;;;;;;0.80;0.40;;;20.50;56.30;;;;;;5030983;28;20048;-59
2021/12/01 05:57:23;;;;;;;1.33;0.47;;;20.50;56.30;;;;;;5030544;28;20052;-59
2021/12/01 05:59:49;;;;;;;0.82;0.40;;;20.50;56.30;;;;;;5030747;28;20050;-59
2021/12/01 06:02:15;;;;;;;0.38;0.30;;;20.40;56.20;;;;;;5032427;28;20041;-59
2021/12/01 06:04:40;;;;;;;1.13;0.40;;;20.50;56.20;;;;;;5030110;28;20038;-59
2021/12/01 06:07:06;;;;;;;2.45;0.40;;;20.50;56.20;;;;;;5032509;28;20041;-59
2021/12/01 06:09:31;;;;;;;0.80;0.30;;;20.50;56.20;;;;;;5030329;28;20052;-59
2021/12/01 06:11:57;;;;;;;0.68;0.40;;;20.50;56.20;;;;;;5030957;28;20057;-59
2021/12/01 06:14:22;;;;;;;0.57;0.30;;;20.40;56.20;;;;;;5047789;28;20042;-59
2021/12/01 06:16:48;;;;;;;0.70;0.40;;;20.40;56.20;;;;;;5046716;28;20077;-59
2021/12/01 06:19:13;;;;;;;0.90;0.30;;;20.50;56.20;;;;;;5031903;28;20049;-59
2021/12/01 06:21:39;;;;;;;0.50;0.30;;;20.50;56.20;;;;;;5031093;28;20500;-59
2021/12/01 06:24:04;;;;;;;0.80;0.50;;;20.40;56.10;;;;;;5031393;28;20087;-59
2021/12/01 06:26:30;;;;;;;0.30;0.30;;;20.50;56.10;;;;;;5032098;28;20041;-59
2021/12/01 06:28:56;;;;;;;0.20;0.20;;;20.50;56.10;;;;;;5032001;28;20096;-59
2021/12/01 06:31:21;;;;;;;1.13;0.28;;;20.50;56.10;;;;;;5029961;28;20053;-59
2021/12/01 06:33:47;;;;;;;1.58;0.30;;;20.50;56.10;;;;;;5031873;28;20084;-59
2021/12/01 06:36:13;;;;;;;0.47;0.32;;;20.40;56.00;;;;;;5031078;28;20041;-59
2021/12/01 06:38:39;;;;;;;1.25;0.40;;;20.50;56.00;;;;;;5034913;28;20505;-59
2021/12/01 06:41:05;;;;;;;0.30;0.30;;;20.50;56.00;;;;;;5034724;28;20053;-59
2021/12/01 06:43:31;;;;;;;0.70;0.38;;;20.50;56.00;;;;;;5034706;28;20038;-59
2021/12/01 06:45:56;;;;;;;0.93;0.35;;;20.50;55.90;;;;;;5034756;28;20163;-59
2021/12/01 06:48:22;;;;;;;0.38;0.20;;;20.50;55.90;;;;;;5035868;28;20045;-59
2021/12/01 06:50:47;;;;;;;1.08;0.30;;;20.50;55.90;;;;;;5035579;28;20049;-59
2021/12/01 06:53:13;;;;;;;0.70;0.40;;;20.50;55.90;;;;;;5035135;28;20045;-59
2021/12/01 06:55:38;;;;;;;0.43;0.20;;;20.50;55.80;;;;;;5035745;28;20049;-60
2021/12/01 06:58:04;;;;;;;1.25;0.30;;;20.50;55.90;;;;;;5035058;28;20045;-60
2021/12/01 07:00:30;;;;;;;0.77;0.30;;;20.50;55.80;;;;;;5034966;28;20055;-59
2021/12/01 07:02:55;;;;;;;1.85;0.40;;;20.50;55.80;;;;;;5035103;28;20049;-59
2021/12/01 07:05:21;;;;;;;0.63;0.28;;;20.50;55.80;;;;;;5035541;28;20124;-59
2021/12/01 07:07:46;;;;;;;1.02;0.25;;;20.50;55.80;;;;;;5034452;28;20136;-59
2021/12/01 07:10:12;;;;;;;1.95;0.30;;;20.50;55.70;;;;;;5035400;28;20120;-59
2021/12/01 07:12:38;;;;;;;0.50;0.30;;;20.50;55.70;;;;;;5033889;28;20140;-59
2021/12/01 07:15:04;;;;;;;0.93;0.30;;;20.50;55.70;;;;;;5034148;28;20068;-59
2021/12/01 07:17:30;;;;;;;1.60;0.30;;;20.50;55.60;;;;;;5035029;28;20492;-59
2021/12/01 07:19:55;;;;;;;0.70;0.30;;;20.50;55.70;;;;;;5034234;28;20528;-58
2021/12/01 07:22:21;;;;;;;1.27;0.30;;;20.50;55.60;;;;;;5035319;28;20041;-59
2021/12/01 07:24:46;;;;;;;1.88;0.45;;;20.50;55.70;;;;;;5028930;28;20425;-58
2021/12/01 07:27:12;;;;;;;2.05;0.30;;;20.60;55.90;;;;;;5025126;28;20084;-60
2021/12/01 07:29:38;;;;;;;3.90;0.35;;;20.60;55.90;;;;;;5016936;28;20046;-60
2021/12/01 07:32:04;;;;;;;0.95;0.30;;;20.60;56.00;;;;;;5013524;28;20045;-60
2021/12/01 07:34:30;;;;;;;0.70;0.22;;;20.60;56.10;;;;;;5014279;28;20084;-60
2021/12/01 07:36:55;;;;;;;1.60;0.30;;;20.60;56.10;;;;;;5014960;28;20079;-60
2021/12/01 07:39:21;;;;;;;0.73;0.40;;;20.60;56.20;;;;;;5015139;28;20391;-60
2021/12/01 07:41:47;;;;;;;0.75;0.20;;;20.60;56.20;;;;;;5013475;28;20080;-60
2021/12/01 07:44:12;;;;;;;1.95;0.40;;;20.60;56.20;;;;;;5014940;28;20100;-60
2021/12/01 07:46:38;;;;;;;6.75;0.40;;;20.60;56.30;;;;;;5013625;28;20034;-60
2021/12/01 07:49:04;;;;;;;1.58;0.30;;;20.60;56.30;;;;;;5012373;28;20045;-60
2021/12/01 07:51:29;;;;;;;1.15;0.30;;;20.60;56.20;;;;;;5018808;28;20057;-59
2021/12/01 07:53:55;;;;;;;0.50;0.30;;;20.60;56.20;;;;;;5014188;28;20042;-58
2021/12/01 07:56:21;;;;;;;2.15;0.32;;;20.70;56.10;;;;;;5013984;28;20046;-59
2021/12/01 07:58:46;;;;;;;1.85;0.50;;;20.70;56.10;;;;;;5012861;28;20460;-58
2021/12/01 08:01:12;;;;;;;4.78;0.52;;;20.70;56.20;;;;;;5013907;28;20046;-59
2021/12/01 08:03:37;;;;;;;2.92;0.50;;;20.70;56.30;;;;;;5013523;28;20042;-59
2021/12/01 08:06:03;;;;;;;0.45;0.20;;;20.70;56.20;;;;;;5012881;28;20552;-59
2021/12/01 08:08:29;;;;;;;0.90;0.30;;;20.70;56.20;;;;;;5014268;28;20136;-59
2021/12/01 08:10:55;;;;;;;3.83;0.22;;;20.70;56.30;;;;;;5019528;28;20076;-59
2021/12/01 08:13:20;;;;;;;1.67;0.20;;;20.70;56.40;;;;;;5033929;28;20409;-59
2021/12/01 08:15:47;;;;;;;0.60;0.30;;;20.70;56.40;;;;;;5033540;28;20137;-58
2021/12/01 08:18:13;;;;;;;1.38;0.28;;;20.70;56.40;;;;;;5020069;28;20061;-59
2021/12/01 08:20:39;;;;;;;1.75;0.32;;;20.70;56.40;;;;;;5017631;28;20041;-60
2021/12/01 08:23:04;;;;;;;2.05;0.35;;;20.70;56.20;;;;;;5032859;28;20060;-59
2021/12/01 08:25:30;;;;;;;0.65;0.30;;;20.70;56.10;;;;;;5032221;28;20041;-59
2021/12/01 08:27:56;;;;;;;1.55;0.25;;;20.70;56.10;;;;;;5033339;28;20077;-59
2021/12/01 08:30:21;;;;;;;1.13;0.32;;;20.70;56.10;;;;;;5031572;28;20084;-59
2021/12/01 08:32:47;;;;;;;0.70;0.30;;;20.70;56.00;;;;;;5031972;28;20515;-59
2021/12/01 08:35:13;;;;;;;0.80;0.30;;;20.70;56.00;;;;;;5032200;28;20037;-58
2021/12/01 08:37:39;;;;;;;3.42;0.40;;;20.70;56.00;;;;;;5028062;28;20604;-59
2021/12/01 08:40:05;;;;;;;3.15;0.88;;;20.80;56.10;;;;;;5012953;28;20057;-58
2021/12/01 08:42:31;;;;;;;3.03;0.85;;;20.70;56.10;;;;;;5012273;28;20038;-59
2021/12/01 08:44:56;;;;;;;1.63;0.70;;;20.80;56.10;;;;;;5010379;28;20056;-59
2021/12/01 08:47:24;;;;;;;1.98;0.70;;;20.70;55.90;;;;;;5012884;28;20095;-59
2021/12/01 08:49:50;;;;;;;3.67;0.80;;;20.80;55.90;;;;;;5013141;28;20405;-58
2021/12/01 08:52:15;;;;;;;2.83;0.80;;;20.70;55.90;;;;;;5011666;28;20037;-59
2021/12/01 08:54:41;;;;;;;3.80;1.02;;;20.80;55.80;;;;;;5013404;28;20498;-59
2021/12/01 08:57:06;;;;;;;4.80;0.80;;;20.80;55.80;;;;;;5013545;28;20512;-59
2021/12/01 08:59:32;;;;;;;4.57;0.95;;;20.80;55.80;;;;;;5012163;28;20061;-59
2021/12/01 09:01:57;;;;;;;4.07;0.90;;;20.80;55.70;;;;;;5013427;28;20054;-59
2021/12/01 09:04:23;;;;;;;4.30;0.80;;;20.80;55.70;;;;;;5012220;28;20050;-59
2021/12/01 09:06:48;;;;;;;2.95;0.80;;;20.70;55.60;;;;;;5011491;28;20042;-59
2021/12/01 09:09:18;;;;;;;2.55;0.75;;;20.70;55.50;;;;;;5011984;28;20046;-59
2021/12/01 09:11:51;;;;;;;1.80;0.60;;;20.80;55.60;;;;;;5011711;28;20045;-59
2021/12/01 09:14:17;;;;;;;2.97;0.80;;;20.70;55.40;;;;;;5011534;28;20046;-59
2021/12/01 09:16:43;;;;;;;1.38;0.50;;;20.70;55.40;;;;;;5013657;28;20119;-59
2021/12/01 09:19:09;;;;;;;1.80;0.80;;;20.70;55.30;;;;;;5012176;28;20058;-59
2021/12/01 09:21:34;;;;;;;2.15;1.08;;;20.70;55.40;;;;;;5012385;28;20401;-59
2021/12/01 09:24:00;;;;;;;2.47;0.70;;;20.70;55.30;;;;;;5011887;28;20058;-59
2021/12/01 09:26:26;;;;;;;2.75;0.85;;;20.70;55.20;;;;;;5012492;28;20549;-59
2021/12/01 09:28:51;;;;;;;1.95;0.80;;;20.70;55.20;;;;;;5012584;28;20100;-59
2021/12/01 09:31:17;;;;;;;1.60;0.70;;;20.70;55.20;;;;;;5013386;28;20065;-59
2021/12/01 09:33:42;;;;;;;2.70;0.65;;;20.70;55.20;;;;;;5011926;28;20053;-59
2021/12/01 09:36:08;;;;;;;3.75;0.80;;;20.70;55.10;;;;;;5013280;28;20418;-59
2021/12/01 09:38:33;;;;;;;1.70;0.65;;;20.70;55.10;;;;;;5013204;28;20499;-59
2021/12/01 09:40:59;;;;;;;2.08;0.70;;;20.70;55.10;;;;;;5012027;28;20049;-59
2021/12/01 09:43:27;;;;;;;1.80;0.60;;;20.70;55.00;;;;;;5012792;28;20053;-59
2021/12/01 09:45:54;;;;;;;2.10;0.63;;;20.70;54.90;;;;;;5012855;28;20103;-59
2021/12/01 09:48:19;;;;;;;2.50;0.75;;;20.70;54.90;;;;;;5012090;28;20057;-59
2021/12/01 09:50:45;;;;;;;2.63;0.80;;;20.70;54.80;;;;;;5011486;28;20046;-59
2021/12/01 09:53:11;;;;;;;3.50;0.75;;;20.70;54.80;;;;;;5011624;28;20049;-59
2021/12/01 09:55:36;;;;;;;1.70;0.60;;;20.70;54.80;;;;;;5010859;28;20038;-59
2021/12/01 09:58:10;;;;;;;3.28;0.80;;;20.70;54.70;;;;;;5011060;28;20042;-59
2021/12/01 10:00:36;;;;;;;3.13;0.70;;;20.70;54.60;;;;;;5013069;28;20052;-59
2021/12/01 10:03:02;;;;;;;1.00;0.50;;;20.70;54.60;;;;;;5010642;28;20104;-59
2021/12/01 10:06:00;;;;;;;2.75;0.73;;;20.70;54.50;;;;;;5011830;28;20050;-59
2021/12/01 10:08:28;;;;;;;3.25;0.70;;;20.70;54.40;;;;;;5012873;28;20133;-59
2021/12/01 10:10:55;;;;;;;2.00;0.70;;;20.70;54.40;;;;;;5011876;28;20049;-59
2021/12/01 10:13:28;;;;;;;1.42;0.57;;;20.70;54.50;;;;;;5014830;28;20050;-59
2021/12/01 10:15:55;;;;;;;3.13;0.82;;;20.70;54.30;;;;;;5015645;28;20131;-59
2021/12/01 10:18:20;;;;;;;1.98;0.60;;;20.70;54.30;;;;;;5015466;28;20048;-59
2021/12/01 10:21:17;;;;;;;4.50;0.70;;;20.70;54.20;;;;;;5015145;28;20045;-59
2021/12/01 10:23:50;;;;;;;2.95;0.60;;;20.70;54.10;;;;;;5014224;28;20123;-59
2021/12/01 10:26:30;;;;;;;2.00;0.50;;;20.70;54.10;;;;;;5016339;28;20398;-59
2021/12/01 10:28:57;;;;;;;3.83;0.60;;;20.70;54.10;;;;;;5014661;28;20052;-59
2021/12/01 10:31:36;;;;;;;4.95;0.70;;;20.70;54.10;;;;;;5014590;28;20061;-59
2021/12/01 10:34:19;;;;;;;5.28;0.80;;;20.70;54.10;;;;;;5015902;28;20128;-59
2021/12/01 10:37:05;;;;;;;3.03;0.60;;;20.70;53.90;;;;;;5014169;28;20050;-59
2021/12/01 10:39:31;;;;;;;4.95;0.73;;;20.70;54.00;;;;;;5015197;28;20065;-59
2021/12/01 10:42:02;;;;;;;2.85;0.80;;;20.70;53.90;;;;;;5014623;28;20398;-59
2021/12/01 10:44:27;;;;;;;2.25;0.50;;;20.70;53.90;;;;;;5014461;28;20038;-59
2021/12/01 10:46:53;;;;;;;2.50;0.80;;;20.70;54.60;;;;;;4998265;28;20641;-59
2021/12/01 10:49:33;;;;;;;3.15;0.70;;;20.70;53.80;;;;;;5014636;28;20049;-59
2021/12/01 10:51:58;;;;;;;4.13;0.70;;;20.70;53.80;;;;;;5015108;28;20069;-59
2021/12/01 10:54:24;;;;;;;2.92;0.77;;;20.70;53.80;;;;;;5014898;28;20399;-59
2021/12/01 10:57:16;;;;;;;2.50;0.80;;;20.70;53.70;;;;;;5015385;28;20049;-59
2021/12/01 10:59:49;;;;;;;4.07;0.82;;;20.70;53.50;;;;;;5014643;28;20061;-59
2021/12/01 11:02:16;;;;;;;3.53;1.10;;;20.70;53.60;;;;;;5014799;28;20042;-59
2021/12/01 11:04:45;;;;;;;3.15;1.13;;;20.70;53.50;;;;;;5014205;28;20523;-58
2021/12/01 11:07:24;;;;;;;4.05;0.90;;;20.70;53.40;;;;;;5014990;28;20490;-59
2021/12/01 11:10:09;;;;;;;3.80;0.90;;;20.70;53.30;;;;;;5014077;28;20592;-59
2021/12/01 11:12:35;;;;;;;4.10;0.90;;;20.70;53.20;;;;;;5014976;28;20077;-59
2021/12/01 11:15:15;;;;;;;4.38;1.02;;;20.70;53.30;;;;;;5014648;28;20135;-59
2021/12/01 11:17:41;;;;;;;4.45;1.23;;;20.70;53.20;;;;;;5013991;28;20050;-59
2021/12/01 11:20:08;;;;;;;4.88;1.23;;;20.70;53.20;;;;;;5014804;28;20390;-58
2021/12/01 11:22:36;;;;;;;3.22;1.20;;;20.70;53.00;;;;;;5013600;28;20072;-59
2021/12/01 11:25:22;;;;;;;4.60;1.20;;;20.70;52.90;;;;;;5013551;28;20046;-58
2021/12/01 11:27:48;;;;;;;4.47;1.60;;;20.70;52.80;;;;;;5014227;28;20089;-60
2021/12/01 11:30:13;;;;;;;7.65;1.67;;;20.70;53.00;;;;;;5015415;28;20119;-59
2021/12/01 11:32:39;;;;;;;3.65;1.30;;;20.70;53.00;;;;;;5015098;28;20134;-58
2021/12/01 11:35:05;;;;;;;5.80;1.48;;;20.80;53.10;;;;;;5014237;28;20045;-58
2021/12/01 11:37:30;;;;;;;4.53;1.67;;;20.80;53.00;;;;;;5015064;28;20394;-58
2021/12/01 11:39:57;;;;;;;6.22;1.45;;;20.80;53.10;;;;;;5014405;28;20473;-59
2021/12/01 11:42:22;;;;;;;5.63;1.50;;;20.80;53.10;;;;;;5013300;28;20582;-58
2021/12/01 11:44:48;;;;;;;5.75;1.27;;;20.80;53.10;;;;;;5013734;28;20069;-59
2021/12/01 11:47:15;;;;;;;4.95;1.40;;;20.80;53.10;;;;;;4996454;28;20046;-59
2021/12/01 11:49:41;;;;;;;7.80;1.67;;;20.80;53.20;;;;;;5013276;28;20050;-58
2021/12/01 11:52:08;;;;;;;6.13;1.40;;;20.80;53.20;;;;;;4997427;28;20034;-59
2021/12/01 11:54:33;;;;;;;5.43;1.55;;;20.90;53.30;;;;;;4996786;28;20053;-59
2021/12/01 11:57:06;;;;;;;4.40;1.33;;;20.90;53.30;;;;;;4980314;28;20125;-59
2021/12/01 11:59:33;;;;;;;6.20;1.50;;;20.90;53.20;;;;;;5014515;28;20065;-58
2021/12/01 12:02:00;;;;;;;6.18;1.30;;;20.80;53.20;;;;;;5013703;28;20143;-59
2021/12/01 12:04:27;;;;;;;5.55;1.33;;;20.90;53.50;;;;;;5014358;28;20096;-59
2021/12/01 12:06:59;;;;;;;4.70;1.25;;;20.90;53.50;;;;;;5019369;28;20056;-59
2021/12/01 12:09:25;;;;;;;5.00;1.17;;;20.90;53.50;;;;;;5023456;28;20470;-59
2021/12/01 12:12:07;;;;;;;5.80;1.38;;;20.80;53.50;;;;;;5025118;28;20129;-58
2021/12/01 12:14:38;;;;;;;6.47;1.30;;;20.90;53.50;;;;;;5024816;28;20087;-59
2021/12/01 12:17:12;;;;;;;5.22;1.08;;;20.90;53.50;;;;;;5021738;28;20041;-58
2021/12/01 12:19:44;;;;;;;5.82;1.33;;;20.90;53.50;;;;;;5022741;28;20124;-59
2021/12/01 12:22:15;;;;;;;6.15;1.20;;;20.90;53.40;;;;;;5020639;28;20076;-59
2021/12/01 12:24:50;;;;;;;5.75;1.50;;;20.90;53.40;;;;;;5002121;28;20642;-58
2021/12/01 12:27:35;;;;;;;4.13;1.15;;;20.90;53.40;;;;;;5023191;28;20046;-58
2021/12/01 12:30:04;;;;;;;5.45;1.52;;;20.90;53.40;;;;;;5023150;28;20049;-59
2021/12/01 12:32:29;;;;;;;5.70;1.50;;;20.90;53.40;;;;;;5023866;28;20121;-59
2021/12/01 12:35:01;;;;;;;4.38;1.17;;;20.90;53.40;;;;;;5022709;28;20132;-59
2021/12/01 12:37:30;;;;;;;5.70;1.20;;;20.90;53.40;;;;;;5023458;28;20436;-59
2021/12/01 12:39:56;;;;;;;10.00;1.25;;;20.90;53.20;;;;;;5021925;28;20049;-59
2021/12/01 12:42:22;;;;;;;6.93;1.40;;;20.90;53.30;;;;;;5022445;28;20085;-59
2021/12/01 12:44:55;;;;;;;6.57;0.98;;;20.90;53.30;;;;;;5022367;28;20103;-59
2021/12/01 12:47:47;;;;;;;6.00;1.13;;;20.90;53.20;;;;;;5019695;28;20055;-58
2021/12/01 12:50:18;;;;;;;5.53;1.50;;;20.90;53.30;;;;;;5028512;28;20079;-58